Time;durP1;ratioP1;P1;durP2;ratioP2;P2;SDS_P1;SDS_P2;PMS_P1;PMS_P2;Temp;Humidity;BMP_temperature;BMP_pressure;BME280_temperature;BME280_humidity;BME280_pressure;Samples;Min_cycle;Max_cycle;Signal;HPM_P1;HPM_P2
2021/09/04 03:02:03;;;;;;;2.58;1.00;;;24.00;75.90;;;;;;5584335;22;93578;-70
2021/09/04 03:04:29;;;;;;;3.00;1.20;;;23.90;76.00;;;;;;4975015;28;88325;-69
2021/09/04 03:06:55;;;;;;;2.58;1.02;;;24.00;76.00;;;;;;4971057;28;87923;-70
2021/09/04 03:09:21;;;;;;;3.95;0.80;;;23.90;75.80;;;;;;4977109;28;87629;-69
2021/09/04 03:11:47;;;;;;;2.25;0.85;;;24.00;75.90;;;;;;4961590;28;87775;-69
2021/09/04 03:14:12;;;;;;;3.05;0.93;;;23.90;75.90;;;;;;4976385;28;87370;-69
2021/09/04 03:16:38;;;;;;;1.45;0.75;;;23.90;75.90;;;;;;4974195;28;86985;-69
2021/09/04 03:19:04;;;;;;;2.97;1.10;;;23.90;75.90;;;;;;4958048;28;87034;-70
2021/09/04 03:21:30;;;;;;;3.22;1.17;;;23.90;75.90;;;;;;4983407;28;88293;-70
2021/09/04 03:23:55;;;;;;;3.50;0.80;;;23.90;75.90;;;;;;4993918;28;87483;-70
2021/09/04 03:26:21;;;;;;;3.00;1.20;;;23.90;75.90;;;;;;4988134;28;87399;-69
2021/09/04 03:28:47;;;;;;;2.70;0.98;;;23.90;76.00;;;;;;4997059;28;87090;-69
2021/09/04 03:31:12;;;;;;;2.58;0.85;;;23.90;75.90;;;;;;4985996;28;87921;-69
2021/09/04 03:33:38;;;;;;;4.65;0.63;;;23.90;75.90;;;;;;4976396;28;89396;-70
2021/09/04 03:36:04;;;;;;;2.28;1.00;;;23.90;75.80;;;;;;4988307;28;86809;-69
2021/09/04 03:38:31;;;;;;;1.88;0.90;;;23.90;75.70;;;;;;4996637;28;87078;-69
2021/09/04 03:40:57;;;;;;;3.38;0.80;;;23.90;75.90;;;;;;4985818;28;87061;-69
2021/09/04 03:43:22;;;;;;;1.90;0.70;;;23.90;75.80;;;;;;4976380;28;87038;-69
2021/09/04 03:45:48;;;;;;;2.88;1.27;;;23.90;75.90;;;;;;4984866;28;86962;-70
2021/09/04 03:48:14;;;;;;;1.80;0.82;;;23.90;76.00;;;;;;4997043;28;86366;-70
2021/09/04 03:50:39;;;;;;;1.80;0.90;;;23.90;76.10;;;;;;4985413;28;86974;-70
2021/09/04 03:53:05;;;;;;;2.97;1.20;;;23.80;75.90;;;;;;4976712;28;87199;-69
2021/09/04 03:55:31;;;;;;;2.25;1.05;;;23.90;75.90;;;;;;4984539;28;88421;-69
2021/09/04 03:57:56;;;;;;;4.30;1.00;;;23.90;76.20;;;;;;4991521;28;87107;-68
2021/09/04 04:00:22;;;;;;;1.85;0.90;;;23.90;76.20;;;;;;4971577;28;87171;-68
2021/09/04 04:02:48;;;;;;;2.00;1.02;;;23.90;76.10;;;;;;4956551;28;88029;-69
2021/09/04 04:05:14;;;;;;;1.92;0.85;;;23.90;76.40;;;;;;4964581;28;87374;-72
2021/09/04 04:07:40;;;;;;;2.53;0.77;;;23.80;76.40;;;;;;4955504;28;87270;-69
2021/09/04 04:10:06;;;;;;;1.67;0.80;;;23.80;76.30;;;;;;4954033;28;87371;-69
2021/09/04 04:12:32;;;;;;;4.05;0.90;;;23.90;76.10;;;;;;4948777;28;86445;-70
2021/09/04 04:14:58;;;;;;;6.18;0.88;;;23.80;76.10;;;;;;4955110;28;87119;-68
2021/09/04 04:17:24;;;;;;;2.20;0.85;;;23.80;76.40;;;;;;4965613;28;87054;-69
2021/09/04 04:19:50;;;;;;;2.75;0.70;;;23.80;76.40;;;;;;4956835;28;88681;-69
2021/09/04 04:22:15;;;;;;;4.57;0.73;;;23.80;76.00;;;;;;4947162;28;87708;-67
2021/09/04 04:24:41;;;;;;;2.65;1.05;;;23.80;76.10;;;;;;4959446;28;86936;-68
2021/09/04 04:27:07;;;;;;;7.47;1.13;;;23.80;75.70;;;;;;4956697;28;87831;-69
2021/09/04 04:29:33;;;;;;;1.48;0.68;;;23.80;75.60;;;;;;4957342;28;91281;-67
2021/09/04 04:31:58;;;;;;;1.58;0.70;;;23.80;75.60;;;;;;4956995;28;87889;-68
2021/09/04 04:34:24;;;;;;;4.30;1.25;;;23.80;75.00;;;;;;4948109;28;87079;-68
2021/09/04 04:36:50;;;;;;;2.28;1.02;;;23.80;75.50;;;;;;4960836;28;86676;-70
2021/09/04 04:39:15;;;;;;;2.00;0.77;;;23.70;75.60;;;;;;4951410;28;88572;-71
2021/09/04 04:41:41;;;;;;;2.40;1.00;;;23.80;75.60;;;;;;4954111;28;86966;-70
2021/09/04 04:44:07;;;;;;;3.70;0.77;;;23.80;75.40;;;;;;4969553;28;87779;-72
2021/09/04 04:46:33;;;;;;;1.95;0.85;;;23.80;75.40;;;;;;4956518;28;86990;-68
2021/09/04 04:48:58;;;;;;;3.63;0.82;;;23.80;75.50;;;;;;4962201;28;87150;-68
2021/09/04 04:51:24;;;;;;;4.78;1.13;;;23.80;75.50;;;;;;4958820;28;88826;-68
2021/09/04 04:53:50;;;;;;;8.75;1.48;;;23.80;75.60;;;;;;4959027;28;87057;-66
2021/09/04 04:56:16;;;;;;;3.60;1.05;;;23.80;76.10;;;;;;4961092;28;87857;-68
2021/09/04 04:58:41;;;;;;;10.20;1.02;;;23.70;76.00;;;;;;4956400;28;87707;-68
2021/09/04 05:01:07;;;;;;;3.05;0.90;;;23.70;76.10;;;;;;4959693;28;87993;-68
2021/09/04 05:03:33;;;;;;;5.07;0.95;;;23.70;76.10;;;;;;4957561;28;86985;-69
2021/09/04 05:05:59;;;;;;;12.15;1.35;;;23.70;76.10;;;;;;4960219;28;88052;-68
2021/09/04 05:08:26;;;;;;;11.30;1.38;;;23.80;76.30;;;;;;4953777;28;89580;-68
2021/09/04 05:10:52;;;;;;;14.40;1.33;;;23.80;76.20;;;;;;4957850;28;87397;-68
2021/09/04 05:13:17;;;;;;;9.25;1.20;;;23.70;76.20;;;;;;4961171;28;86954;-68
2021/09/04 05:15:43;;;;;;;14.00;1.70;;;23.70;76.20;;;;;;4966232;28;87080;-68
2021/09/04 05:18:09;;;;;;;7.10;1.17;;;23.70;76.30;;;;;;4956226;28;88166;-68
2021/09/04 05:20:36;;;;;;;11.35;1.42;;;23.70;77.00;;;;;;4951287;28;87371;-68
2021/09/04 05:23:01;;;;;;;9.77;1.25;;;23.70;76.30;;;;;;4956819;28;87163;-69
2021/09/04 05:25:27;;;;;;;7.97;1.27;;;23.70;76.20;;;;;;4958252;28;86309;-68
2021/09/04 05:27:53;;;;;;;5.68;1.23;;;23.70;76.30;;;;;;4952269;28;88459;-68
2021/09/04 05:30:18;;;;;;;9.40;1.40;;;23.70;76.30;;;;;;4958121;28;87061;-68
2021/09/04 05:32:44;;;;;;;6.32;1.42;;;23.70;76.40;;;;;;4958328;28;87947;-68
2021/09/04 05:35:10;;;;;;;10.30;1.42;;;23.70;76.40;;;;;;4958641;28;86990;-68
2021/09/04 05:37:36;;;;;;;4.65;1.20;;;23.70;76.60;;;;;;4957117;28;87395;-68
2021/09/04 05:40:03;;;;;;;5.68;0.88;;;23.70;76.30;;;;;;4958502;28;87105;-68
2021/09/04 05:42:28;;;;;;;7.47;1.27;;;23.70;76.30;;;;;;4957960;28;87058;-68
2021/09/04 05:44:54;;;;;;;4.85;1.08;;;23.70;76.30;;;;;;4958493;28;86962;-68
2021/09/04 05:47:20;;;;;;;7.75;1.33;;;23.70;76.30;;;;;;4957804;28;87291;-68
2021/09/04 05:49:45;;;;;;;5.00;1.13;;;23.70;76.10;;;;;;4957164;28;88027;-67
2021/09/04 05:52:11;;;;;;;4.55;0.90;;;23.70;76.10;;;;;;4963798;28;87014;-68
2021/09/04 05:54:36;;;;;;;5.95;1.10;;;23.70;75.90;;;;;;4960964;28;87299;-68
2021/09/04 05:57:02;;;;;;;7.65;1.30;;;23.80;75.80;;;;;;4956522;28;88453;-66
2021/09/04 05:59:28;;;;;;;7.28;1.27;;;23.80;75.70;;;;;;4952977;28;88534;-68
2021/09/04 06:01:54;;;;;;;5.70;0.90;;;23.80;75.80;;;;;;4960254;28;87393;-69
2021/09/04 06:04:19;;;;;;;5.63;1.15;;;23.80;75.80;;;;;;4958297;28;86894;-67
2021/09/04 06:06:45;;;;;;;6.55;1.40;;;23.70;75.50;;;;;;4961568;28;87316;-69
2021/09/04 06:09:11;;;;;;;5.57;1.38;;;23.80;75.60;;;;;;4953744;28;86920;-68
2021/09/04 06:11:36;;;;;;;3.72;0.90;;;23.80;75.60;;;;;;4954323;28;86880;-69
2021/09/04 06:14:02;;;;;;;3.72;1.08;;;23.80;75.60;;;;;;4954070;28;86403;-69
2021/09/04 06:16:28;;;;;;;3.50;0.82;;;23.80;75.40;;;;;;4953940;28;87047;-68
2021/09/04 06:18:54;;;;;;;4.30;1.20;;;23.80;75.60;;;;;;4954010;28;87983;-68
2021/09/04 06:21:20;;;;;;;4.28;1.20;;;23.80;75.40;;;;;;4957423;28;87999;-68
2021/09/04 06:23:45;;;;;;;4.63;1.65;;;23.80;75.40;;;;;;4951772;28;86950;-68
2021/09/04 06:26:11;;;;;;;5.45;1.10;;;23.80;75.30;;;;;;4944403;28;87454;-68
2021/09/04 06:28:37;;;;;;;4.78;1.23;;;23.90;75.30;;;;;;4956852;28;87125;-69
2021/09/04 06:31:03;;;;;;;6.85;1.88;;;23.90;75.20;;;;;;4948611;28;87045;-69
2021/09/04 06:33:29;;;;;;;3.47;1.30;;;23.90;75.10;;;;;;4953446;28;87432;-68
2021/09/04 06:35:54;;;;;;;5.18;1.27;;;23.90;75.10;;;;;;4956484;28;87482;-68
2021/09/04 06:38:20;;;;;;;4.97;1.20;;;23.90;75.00;;;;;;4957402;28;87224;-68
2021/09/04 06:40:47;;;;;;;6.45;1.20;;;23.90;75.00;;;;;;4943270;28;86884;-68
2021/09/04 06:43:12;;;;;;;3.20;1.20;;;23.90;74.90;;;;;;4943666;28;87157;-68
2021/09/04 06:45:38;;;;;;;3.20;0.88;;;23.90;74.80;;;;;;4944229;28;87956;-68
2021/09/04 06:48:04;;;;;;;3.75;1.10;;;23.90;74.80;;;;;;4950599;28;89261;-68
2021/09/04 06:50:30;;;;;;;4.32;0.98;;;23.90;74.70;;;;;;4955045;28;87167;-68
2021/09/04 06:52:56;;;;;;;4.03;1.00;;;23.90;74.70;;;;;;4949087;28;87005;-68
2021/09/04 06:55:23;;;;;;;3.95;1.30;;;23.90;74.60;;;;;;4947761;28;88501;-68
2021/09/04 06:57:48;;;;;;;4.10;0.98;;;23.90;74.60;;;;;;4955234;28;87204;-68
2021/09/04 07:00:14;;;;;;;2.80;0.93;;;23.90;74.60;;;;;;4955703;28;86803;-68
2021/09/04 07:02:40;;;;;;;3.42;1.13;;;24.00;74.60;;;;;;4953403;28;86858;-68
2021/09/04 07:05:06;;;;;;;3.60;1.02;;;24.00;74.60;;;;;;4954718;28;87433;-68
2021/09/04 07:07:32;;;;;;;2.85;1.05;;;24.00;74.50;;;;;;4947919;28;87412;-68
2021/09/04 07:09:58;;;;;;;4.18;1.20;;;24.00;74.50;;;;;;4954931;28;87948;-68
2021/09/04 07:12:23;;;;;;;3.20;0.88;;;24.00;74.40;;;;;;4948262;28;87136;-68
2021/09/04 07:14:49;;;;;;;4.32;1.10;;;24.00;74.30;;;;;;4944607;28;87950;-67
2021/09/04 07:17:14;;;;;;;3.53;1.10;;;24.00;74.30;;;;;;4950868;28;87486;-68
2021/09/04 07:19:40;;;;;;;2.15;0.93;;;24.00;74.20;;;;;;4947921;28;87092;-68
2021/09/04 07:22:06;;;;;;;3.20;1.20;;;24.00;74.20;;;;;;4955669;28;87067;-68
2021/09/04 07:24:31;;;;;;;3.85;1.25;;;24.00;74.10;;;;;;4951950;28;87467;-68
2021/09/04 07:26:57;;;;;;;3.15;0.85;;;24.00;74.10;;;;;;4943351;28;87099;-67
2021/09/04 07:29:23;;;;;;;3.88;1.30;;;24.10;74.10;;;;;;4954910;28;86771;-67
2021/09/04 07:31:48;;;;;;;2.90;0.95;;;24.10;74.00;;;;;;4947792;28;86657;-68
2021/09/04 07:34:14;;;;;;;3.58;1.02;;;24.10;74.00;;;;;;4950420;28;88197;-68
2021/09/04 07:36:40;;;;;;;4.03;1.10;;;24.10;73.90;;;;;;4950737;28;87931;-67
2021/09/04 07:39:06;;;;;;;2.92;1.30;;;24.10;73.90;;;;;;4952238;28;87374;-68
2021/09/04 07:41:32;;;;;;;5.72;1.00;;;24.10;73.80;;;;;;4950684;28;87315;-68
2021/09/04 07:43:58;;;;;;;2.92;1.10;;;24.10;73.80;;;;;;4955062;28;87042;-68
2021/09/04 07:46:24;;;;;;;2.42;1.13;;;24.10;73.80;;;;;;4948175;28;86774;-68
2021/09/04 07:48:50;;;;;;;3.83;1.10;;;24.10;73.70;;;;;;4954655;28;86904;-68
2021/09/04 07:51:15;;;;;;;2.50;0.90;;;24.10;73.70;;;;;;4955213;28;86312;-68
2021/09/04 07:53:41;;;;;;;2.20;0.82;;;24.10;73.60;;;;;;4954728;28;87631;-68
2021/09/04 07:56:07;;;;;;;2.97;1.00;;;24.10;73.50;;;;;;4947752;28;87790;-68
2021/09/04 07:58:33;;;;;;;3.65;1.00;;;24.10;73.50;;;;;;4951726;28;88396;-68
2021/09/04 08:00:59;;;;;;;2.25;1.30;;;24.10;73.50;;;;;;4953773;28;87383;-68
2021/09/04 08:03:24;;;;;;;6.05;1.23;;;24.10;73.50;;;;;;4955662;28;87409;-68
2021/09/04 08:05:50;;;;;;;3.97;1.25;;;24.10;73.40;;;;;;4953274;28;87454;-68
2021/09/04 08:08:16;;;;;;;4.38;1.20;;;24.10;73.40;;;;;;4947789;28;86934;-68
2021/09/04 08:10:43;;;;;;;3.97;1.00;;;24.10;73.40;;;;;;4947153;28;87379;-68
2021/09/04 08:13:10;;;;;;;3.47;1.40;;;24.20;73.40;;;;;;4951065;28;88279;-67
2021/09/04 08:15:37;;;;;;;3.22;1.13;;;24.20;73.40;;;;;;4951581;28;86782;-68
2021/09/04 08:18:02;;;;;;;2.47;1.10;;;24.20;73.30;;;;;;4948418;28;86960;-68
2021/09/04 08:20:28;;;;;;;2.58;1.00;;;24.10;73.20;;;;;;4953564;28;87127;-68
2021/09/04 08:22:54;;;;;;;4.28;0.88;;;24.20;73.20;;;;;;4957289;28;88569;-68
2021/09/04 08:25:20;;;;;;;2.63;0.85;;;24.20;73.20;;;;;;4951343;28;88493;-68
2021/09/04 08:27:45;;;;;;;2.47;1.27;;;24.20;73.10;;;;;;4955361;28;86989;-68
2021/09/04 08:30:12;;;;;;;2.15;1.00;;;24.20;73.10;;;;;;4948042;28;86994;-68
2021/09/04 08:32:38;;;;;;;2.47;0.90;;;24.20;73.10;;;;;;4948602;28;86956;-68
2021/09/04 08:35:04;;;;;;;2.22;0.85;;;24.20;73.10;;;;;;4947623;28;86894;-68
2021/09/04 08:37:30;;;;;;;2.78;1.02;;;24.30;73.10;;;;;;4949228;28;87114;-68
2021/09/04 08:39:56;;;;;;;2.38;1.25;;;24.30;73.10;;;;;;4954705;28;86392;-68
2021/09/04 08:42:21;;;;;;;1.98;0.85;;;24.20;73.00;;;;;;4949258;28;88368;-68
2021/09/04 08:44:47;;;;;;;1.77;0.75;;;24.20;72.90;;;;;;4953829;28;88324;-68
2021/09/04 08:47:13;;;;;;;3.25;1.00;;;24.30;73.00;;;;;;4949525;28;87914;-68
2021/09/04 08:49:39;;;;;;;3.30;1.00;;;24.30;73.00;;;;;;4948531;28;86927;-68
2021/09/04 08:52:06;;;;;;;2.00;0.82;;;24.30;73.00;;;;;;4950392;28;88292;-68
2021/09/04 08:54:32;;;;;;;1.83;0.85;;;24.30;72.90;;;;;;4956868;28;89276;-68
2021/09/04 08:56:58;;;;;;;1.95;0.90;;;24.30;72.90;;;;;;4957053;28;87205;-68
2021/09/04 08:59:23;;;;;;;2.22;0.88;;;24.30;72.90;;;;;;4957196;28;86647;-68
2021/09/04 09:01:50;;;;;;;2.10;0.95;;;24.30;72.80;;;;;;4955002;28;87608;-68
2021/09/04 09:04:21;;;;;;;2.30;0.95;;;24.30;72.80;;;;;;4957242;28;87337;-68
2021/09/04 09:06:47;;;;;;;2.42;0.82;;;24.30;72.80;;;;;;4952893;28;87125;-68
2021/09/04 09:09:19;;;;;;;2.03;1.05;;;24.30;72.80;;;;;;4947894;28;87126;-68
2021/09/04 09:11:46;;;;;;;1.90;0.85;;;24.30;72.80;;;;;;4948925;28;88935;-68
2021/09/04 09:14:12;;;;;;;1.60;0.95;;;24.30;72.70;;;;;;4950140;28;88111;-68
2021/09/04 09:16:51;;;;;;;2.13;0.98;;;24.30;72.70;;;;;;4949985;28;86535;-68
2021/09/04 09:19:19;;;;;;;2.22;0.63;;;24.40;72.70;;;;;;4956950;28;86972;-68
2021/09/04 09:21:45;;;;;;;1.83;0.65;;;24.40;72.70;;;;;;4955374;28;87854;-68
2021/09/04 09:24:18;;;;;;;2.25;0.93;;;24.40;72.70;;;;;;4941021;28;88647;-68
2021/09/04 09:26:55;;;;;;;2.55;1.02;;;24.40;72.70;;;;;;4941380;28;87089;-68
2021/09/04 09:29:26;;;;;;;2.40;0.80;;;24.40;72.70;;;;;;4946991;28;86389;-68
2021/09/04 09:32:02;;;;;;;1.67;0.70;;;24.40;72.60;;;;;;4949469;28;87002;-68
2021/09/04 09:34:28;;;;;;;2.08;0.88;;;24.40;72.70;;;;;;4948261;28;87083;-68
2021/09/04 09:36:57;;;;;;;2.55;0.98;;;24.40;72.60;;;;;;4938757;28;88071;-68
2021/09/04 09:39:37;;;;;;;1.58;0.57;;;24.40;72.60;;;;;;4952086;28;86979;-68
2021/09/04 09:42:04;;;;;;;2.58;1.00;;;24.40;72.60;;;;;;4956356;28;87098;-68
2021/09/04 09:44:32;;;;;;;3.22;0.80;;;24.40;72.70;;;;;;4955886;28;86963;-68
2021/09/04 09:47:00;;;;;;;2.85;0.80;;;24.40;72.80;;;;;;4936935;28;86947;-68
2021/09/04 09:49:28;;;;;;;12.63;1.33;;;24.40;73.10;;;;;;4949056;28;87488;-68
2021/09/04 09:52:00;;;;;;;11.57;1.08;;;24.40;73.20;;;;;;4949088;28;87093;-68
2021/09/04 09:54:30;;;;;;;5.18;0.80;;;24.40;73.30;;;;;;4953934;28;88126;-68
2021/09/04 09:56:57;;;;;;;5.43;0.85;;;24.40;73.50;;;;;;4960885;28;87097;-68
2021/09/04 09:59:28;;;;;;;7.47;0.95;;;24.40;73.40;;;;;;4957603;28;87133;-68
2021/09/04 10:01:59;;;;;;;3.88;0.90;;;24.40;73.20;;;;;;4950264;28;88110;-68
2021/09/04 10:04:31;;;;;;;5.75;0.70;;;24.40;73.20;;;;;;4975395;28;89213;-68
2021/09/04 10:06:56;;;;;;;4.10;1.00;;;24.40;73.30;;;;;;4960513;28;87679;-68
2021/09/04 10:09:26;;;;;;;3.38;0.73;;;24.40;73.20;;;;;;4947581;28;87661;-68
2021/09/04 10:11:52;;;;;;;3.00;0.82;;;24.40;73.30;;;;;;4944583;28;87324;-68
2021/09/04 10:14:19;;;;;;;4.70;1.20;;;24.40;73.30;;;;;;4955963;28;88154;-68
2021/09/04 10:16:48;;;;;;;4.50;1.05;;;24.40;73.40;;;;;;4959816;28;86491;-68
2021/09/04 10:19:18;;;;;;;3.97;0.80;;;24.40;73.30;;;;;;4960924;28;86297;-68
2021/09/04 10:21:44;;;;;;;4.35;1.13;;;24.40;73.30;;;;;;4953388;28;87447;-71
2021/09/04 10:24:10;;;;;;;4.32;1.65;;;24.30;73.20;;;;;;4961088;28;88100;-69
2021/09/04 10:26:41;;;;;;;5.18;1.00;;;24.30;73.10;;;;;;4955901;28;87789;-70
2021/09/04 10:29:07;;;;;;;3.78;1.00;;;24.40;73.10;;;;;;4965654;28;86983;-69
2021/09/04 10:31:57;;;;;;;2.33;1.15;;;24.40;73.10;;;;;;4965278;28;86899;-69
2021/09/04 10:34:37;;;;;;;3.38;1.45;;;24.40;73.10;;;;;;4954355;28;88622;-69
2021/09/04 10:37:03;;;;;;;3.15;1.05;;;24.40;73.20;;;;;;4959162;28;87162;-69
2021/09/04 10:39:52;;;;;;;3.28;1.25;;;24.40;73.10;;;;;;4969638;28;87302;-69
2021/09/04 10:42:25;;;;;;;3.45;1.15;;;24.40;73.10;;;;;;4957247;28;87701;-69
2021/09/04 10:45:14;;;;;;;5.30;0.98;;;24.40;73.10;;;;;;4963861;28;87920;-69
2021/09/04 10:47:47;;;;;;;6.07;1.30;;;24.40;73.10;;;;;;4956053;28;87075;-69
2021/09/04 10:50:16;;;;;;;2.72;1.08;;;24.40;73.20;;;;;;4959390;28;87056;-70
2021/09/04 10:52:56;;;;;;;5.47;1.02;;;24.40;73.10;;;;;;4957140;28;88186;-70
2021/09/04 10:55:32;;;;;;;3.70;0.95;;;24.40;73.20;;;;;;4948509;28;87865;-70
2021/09/04 10:58:14;;;;;;;2.67;1.45;;;24.40;73.10;;;;;;4944212;28;87022;-70
2021/09/04 11:00:43;;;;;;;4.07;1.30;;;24.40;73.10;;;;;;4951427;28;86974;-69
2021/09/04 11:03:13;;;;;;;3.38;1.30;;;24.40;73.10;;;;;;4949847;28;88282;-69
2021/09/04 11:05:40;;;;;;;2.25;1.15;;;24.40;73.20;;;;;;4961231;28;88078;-69
2021/09/04 11:08:20;;;;;;;4.53;1.33;;;24.50;73.20;;;;;;4958783;28;86899;-69
2021/09/04 11:10:48;;;;;;;2.35;1.20;;;24.40;73.20;;;;;;4961288;28;86531;-70
2021/09/04 11:13:13;;;;;;;2.72;1.05;;;24.40;73.20;;;;;;4956960;28;86916;-69
2021/09/04 11:15:40;;;;;;;3.05;0.93;;;24.50;73.20;;;;;;4956747;28;87312;-69
2021/09/04 11:18:07;;;;;;;3.75;1.55;;;24.50;73.10;;;;;;4955571;28;88457;-70
2021/09/04 11:20:32;;;;;;;2.45;1.13;;;24.50;73.20;;;;;;4961641;28;87153;-69
2021/09/04 11:22:58;;;;;;;2.53;1.40;;;24.50;73.10;;;;;;4958052;28;87195;-69
2021/09/04 11:25:24;;;;;;;7.18;1.52;;;24.50;73.10;;;;;;4951781;28;86590;-69
2021/09/04 11:27:50;;;;;;;2.78;1.23;;;24.50;73.10;;;;;;4955429;28;87290;-69
2021/09/04 11:30:17;;;;;;;2.45;1.10;;;24.50;73.00;;;;;;4955330;28;87068;-69
2021/09/04 11:32:43;;;;;;;3.55;1.40;;;24.50;72.90;;;;;;4959992;28;88671;-69
2021/09/04 11:35:10;;;;;;;6.18;1.48;;;24.60;73.10;;;;;;4960803;28;87544;-69
2021/09/04 11:37:41;;;;;;;2.90;1.45;;;24.60;73.10;;;;;;4960479;28;86917;-69
2021/09/04 11:40:18;;;;;;;5.05;1.95;;;24.60;72.90;;;;;;4954954;28;86977;-69
2021/09/04 11:42:46;;;;;;;3.30;1.10;;;24.60;72.90;;;;;;4962278;28;88012;-69
2021/09/04 11:45:14;;;;;;;4.22;1.48;;;24.60;72.90;;;;;;4964634;28;88492;-72
2021/09/04 11:47:46;;;;;;;4.70;1.35;;;24.60;72.80;;;;;;4957567;28;87022;-68
2021/09/04 11:50:22;;;;;;;2.85;1.65;;;24.60;72.80;;;;;;4960602;28;87084;-68
2021/09/04 11:52:49;;;;;;;5.97;1.60;;;24.60;72.80;;;;;;4959067;28;87419;-69
2021/09/04 11:55:20;;;;;;;4.03;1.63;;;24.60;72.70;;;;;;4962882;28;87091;-69
2021/09/04 11:57:55;;;;;;;2.92;1.17;;;24.60;72.70;;;;;;4951921;28;87047;-69
2021/09/04 12:00:35;;;;;;;4.25;1.63;;;24.60;72.70;;;;;;4960256;28;86115;-68
2021/09/04 12:03:05;;;;;;;4.93;1.83;;;24.70;72.70;;;;;;4957404;28;87205;-69
2021/09/04 12:05:35;;;;;;;3.85;1.80;;;24.60;72.70;;;;;;4963628;28;87933;-68
2021/09/04 12:08:10;;;;;;;3.35;1.45;;;24.70;72.70;;;;;;4963957;28;88034;-68
2021/09/04 12:10:45;;;;;;;2.83;1.40;;;24.70;72.70;;;;;;4965677;28;87030;-69
2021/09/04 12:13:24;;;;;;;5.40;1.45;;;24.70;72.70;;;;;;4958234;28;88726;-68
2021/09/04 12:16:03;;;;;;;3.50;1.90;;;24.70;72.70;;;;;;4961163;28;87987;-69
2021/09/04 12:18:33;;;;;;;3.65;1.92;;;24.70;72.70;;;;;;4957186;28;87123;-69
2021/09/04 12:21:21;;;;;;;6.13;1.90;;;24.70;72.70;;;;;;4957628;28;86838;-68
2021/09/04 12:23:48;;;;;;;4.72;1.98;;;24.70;72.80;;;;;;4953766;28;87734;-68
2021/09/04 12:26:14;;;;;;;5.57;1.45;;;24.70;73.00;;;;;;4947243;28;88679;-69
2021/09/04 12:28:41;;;;;;;4.45;1.98;;;24.70;72.90;;;;;;4951752;28;87146;-68
2021/09/04 12:31:09;;;;;;;3.30;1.90;;;24.70;72.90;;;;;;4956407;28;87142;-69
2021/09/04 12:33:50;;;;;;;5.85;1.83;;;24.70;72.80;;;;;;4955645;28;88592;-68
2021/09/04 12:36:37;;;;;;;4.80;1.80;;;24.80;73.40;;;;;;4954260;28;89376;-68
2021/09/04 12:39:13;;;;;;;3.45;1.70;;;24.80;73.30;;;;;;4953607;28;86786;-68
2021/09/04 12:41:39;;;;;;;6.43;2.17;;;24.80;73.40;;;;;;4956415;28;87154;-68
2021/09/04 12:44:10;;;;;;;4.75;1.98;;;24.80;73.80;;;;;;4956038;28;87481;-68
2021/09/04 12:46:49;;;;;;;6.57;2.03;;;24.90;74.20;;;;;;4953031;28;87424;-71
2021/09/04 12:49:47;;;;;;;31.77;2.30;;;24.90;74.50;;;;;;4955418;28;86996;-70
2021/09/04 12:52:23;;;;;;;19.45;2.47;;;24.90;75.20;;;;;;4957604;28;86819;-74
2021/09/04 12:54:51;;;;;;;20.77;2.20;;;25.00;75.20;;;;;;4957454;28;87023;-75
2021/09/04 12:57:21;;;;;;;15.30;2.30;;;25.00;75.20;;;;;;4956990;28;86851;-75
2021/09/04 13:00:04;;;;;;;21.25;2.38;;;25.10;75.70;;;;;;4956949;28;87720;-73
2021/09/04 13:02:31;;;;;;;10.25;1.73;;;25.10;75.10;;;;;;4944972;28;86794;-72
2021/09/04 13:05:00;;;;;;;11.57;2.22;;;25.10;75.20;;;;;;4955741;28;87717;-72
2021/09/04 13:07:27;;;;;;;12.65;1.85;;;25.10;75.30;;;;;;4955998;28;87120;-72
2021/09/04 13:09:54;;;;;;;9.52;2.15;;;25.10;75.10;;;;;;4955685;28;88017;-72
2021/09/04 13:12:20;;;;;;;4.75;2.03;;;25.10;75.00;;;;;;4956426;28;86943;-72
2021/09/04 13:14:45;;;;;;;16.35;1.65;;;25.10;75.10;;;;;;4955211;28;87519;-72
2021/09/04 13:17:12;;;;;;;11.52;2.03;;;25.10;75.00;;;;;;4952683;28;86484;-72
2021/09/04 13:19:38;;;;;;;7.40;2.13;;;25.20;75.10;;;;;;4956539;28;87415;-72
2021/09/04 13:22:04;;;;;;;7.70;1.88;;;25.20;75.00;;;;;;4956226;28;87589;-73
2021/09/04 13:24:30;;;;;;;5.75;1.83;;;25.20;75.00;;;;;;4955005;28;88494;-74
2021/09/04 13:26:56;;;;;;;9.88;2.10;;;25.20;75.00;;;;;;4953606;28;88981;-75
2021/09/04 13:29:22;;;;;;;5.60;1.80;;;25.20;75.10;;;;;;4952243;28;87175;-74
2021/09/04 13:31:49;;;;;;;5.93;1.60;;;25.20;75.10;;;;;;4955052;28;86596;-75
2021/09/04 13:34:16;;;;;;;5.38;1.90;;;25.30;75.20;;;;;;4958019;28;87701;-75
2021/09/04 13:36:42;;;;;;;8.00;1.80;;;25.20;75.10;;;;;;4956043;28;87927;-76
2021/09/04 13:39:09;;;;;;;6.70;1.75;;;25.30;75.20;;;;;;4957070;28;87540;-76
2021/09/04 13:41:35;;;;;;;5.95;1.42;;;25.30;75.30;;;;;;4956484;28;86438;-76
2021/09/04 13:44:01;;;;;;;6.78;1.67;;;25.30;75.20;;;;;;4956757;28;86980;-76
2021/09/04 13:46:26;;;;;;;5.25;1.73;;;25.30;75.20;;;;;;4955938;28;87316;-75
2021/09/04 13:48:52;;;;;;;6.03;1.58;;;25.30;75.60;;;;;;4959300;28;87567;-76
2021/09/04 13:51:18;;;;;;;7.32;1.42;;;25.30;75.30;;;;;;4955574;28;87037;-75
2021/09/04 13:53:43;;;;;;;5.95;1.55;;;25.40;75.40;;;;;;4957931;28;87431;-76
2021/09/04 13:56:09;;;;;;;5.85;2.17;;;25.40;75.30;;;;;;4966016;28;87302;-75
2021/09/04 13:58:35;;;;;;;7.25;1.65;;;25.40;75.40;;;;;;4957778;28;87082;-78
2021/09/04 14:01:02;;;;;;;6.57;2.00;;;25.40;75.60;;;;;;4961506;28;87158;-77
2021/09/04 14:03:27;;;;;;;7.35;2.30;;;25.40;75.60;;;;;;4958718;28;88310;-76
2021/09/04 14:05:53;;;;;;;6.00;1.23;;;25.40;75.50;;;;;;4958290;28;87406;-74
2021/09/04 14:08:19;;;;;;;9.13;1.58;;;25.40;75.90;;;;;;4958356;28;86842;-74
2021/09/04 14:10:44;;;;;;;8.73;1.50;;;25.40;75.90;;;;;;4959487;28;87080;-70
2021/09/04 14:13:10;;;;;;;7.80;1.42;;;25.40;75.70;;;;;;4953290;28;88656;-72
2021/09/04 14:15:36;;;;;;;7.35;1.50;;;25.40;75.80;;;;;;4958938;28;88257;-71
2021/09/04 14:18:02;;;;;;;6.63;1.73;;;25.40;75.30;;;;;;4957932;28;87147;-72
2021/09/04 14:20:27;;;;;;;7.10;1.58;;;25.40;75.30;;;;;;4959585;28;87548;-72
2021/09/04 14:22:53;;;;;;;7.40;1.95;;;25.40;75.30;;;;;;4956376;28;87661;-72
2021/09/04 14:25:19;;;;;;;4.00;1.63;;;25.40;75.10;;;;;;4955940;28;87145;-72
2021/09/04 14:27:45;;;;;;;4.97;1.83;;;25.40;75.10;;;;;;4956103;28;86890;-72
2021/09/04 14:30:11;;;;;;;4.50;1.73;;;25.40;74.90;;;;;;4956320;28;86283;-71
2021/09/04 14:32:37;;;;;;;6.28;1.70;;;25.40;74.90;;;;;;4955632;28;86939;-72
2021/09/04 14:35:04;;;;;;;7.57;1.85;;;25.40;74.80;;;;;;4953447;28;86876;-72
2021/09/04 14:37:30;;;;;;;6.15;2.13;;;25.40;75.00;;;;;;4955073;28;87960;-72
2021/09/04 14:39:56;;;;;;;3.95;1.65;;;25.40;74.70;;;;;;4955649;28;86909;-72
2021/09/04 14:42:22;;;;;;;14.15;1.83;;;25.40;74.60;;;;;;4955658;28;87456;-72
2021/09/04 14:44:49;;;;;;;4.43;1.50;;;25.40;74.60;;;;;;4955593;28;86979;-72
2021/09/04 14:47:14;;;;;;;6.22;1.40;;;25.40;74.50;;;;;;4955882;28;86829;-72
2021/09/04 14:49:40;;;;;;;8.40;1.77;;;25.40;74.50;;;;;;4954985;28;87247;-72
2021/09/04 14:52:06;;;;;;;10.10;1.60;;;25.40;74.40;;;;;;4955261;28;86923;-72
2021/09/04 14:54:32;;;;;;;3.90;1.33;;;25.40;74.40;;;;;;4956144;28;87274;-72
2021/09/04 14:56:58;;;;;;;5.95;1.23;;;25.40;74.40;;;;;;4958131;28;87062;-72
2021/09/04 14:59:23;;;;;;;6.70;1.30;;;25.40;74.30;;;;;;4957202;28;87159;-72
2021/09/04 15:01:49;;;;;;;7.63;1.65;;;25.40;74.30;;;;;;4952503;28;88444;-72
2021/09/04 15:04:15;;;;;;;6.32;1.42;;;25.40;75.00;;;;;;4947658;28;89168;-72
2021/09/04 15:06:41;;;;;;;4.40;1.35;;;25.40;74.30;;;;;;4955329;28;87205;-72
2021/09/04 15:09:06;;;;;;;6.72;1.40;;;25.40;74.20;;;;;;4954594;28;87061;-72
2021/09/04 15:11:32;;;;;;;4.50;1.40;;;25.40;74.20;;;;;;4954985;28;87172;-72
2021/09/04 15:13:58;;;;;;;5.75;1.58;;;25.40;74.20;;;;;;4954374;28;88072;-72
2021/09/04 15:16:25;;;;;;;4.45;1.15;;;25.50;74.30;;;;;;4950573;28;86967;-72
2021/09/04 15:18:51;;;;;;;3.15;1.17;;;25.50;74.30;;;;;;4957880;28;86501;-72
2021/09/04 15:21:17;;;;;;;7.50;1.58;;;25.50;74.20;;;;;;4954144;28;89088;-73
2021/09/04 15:23:43;;;;;;;3.15;1.25;;;25.50;74.10;;;;;;4955580;28;87556;-72
2021/09/04 15:26:11;;;;;;;3.38;1.35;;;25.50;74.10;;;;;;4955064;28;87820;-72
2021/09/04 15:28:37;;;;;;;4.85;1.50;;;25.40;74.00;;;;;;4957126;28;87196;-72
2021/09/04 15:31:03;;;;;;;4.40;1.60;;;25.50;74.10;;;;;;4949085;28;87321;-72
2021/09/04 15:33:29;;;;;;;2.58;1.30;;;25.50;74.10;;;;;;4954831;28;87225;-72
2021/09/04 15:35:55;;;;;;;4.43;1.30;;;25.50;74.00;;;;;;4954494;28;87134;-72
2021/09/04 15:38:21;;;;;;;4.38;1.80;;;25.40;73.80;;;;;;4946869;28;86959;-72
2021/09/04 15:40:47;;;;;;;3.42;1.58;;;25.50;73.90;;;;;;4954555;28;88686;-72
2021/09/04 15:43:12;;;;;;;8.00;1.50;;;25.50;73.90;;;;;;4952802;28;86378;-72
2021/09/04 15:45:38;;;;;;;3.20;1.08;;;25.40;73.70;;;;;;4955299;28;86989;-72
2021/09/04 15:48:04;;;;;;;3.58;1.45;;;25.50;73.80;;;;;;4955039;28;86672;-72